sensor_id;sensor_type;location;lat;lon;timestamp;temperature;humidity
15413;DHT22;7805;49.554;7.632;2022-12-20T00:01:47;2.40;99.90
15413;DHT22;7805;49.554;7.632;2022-12-20T00:04:12;2.40;99.90
15413;DHT22;7805;49.554;7.632;2022-12-20T00:06:38;2.40;99.90
15413;DHT22;7805;49.554;7.632;2022-12-20T00:09:08;2.40;99.90
15413;DHT22;7805;49.554;7.632;2022-12-20T00:11:34;2.40;99.90
15413;DHT22;7805;49.554;7.632;2022-12-20T00:14:02;2.40;99.90
15413;DHT22;7805;49.554;7.632;2022-12-20T00:16:28;2.60;99.90
15413;DHT22;7805;49.554;7.632;2022-12-20T00:18:57;2.40;99.90
15413;DHT22;7805;49.554;7.632;2022-12-20T00:21:23;2.40;99.90
15413;DHT22;7805;49.554;7.632;2022-12-20T00:23:50;2.40;99.90
15413;DHT22;7805;49.554;7.632;2022-12-20T00:26:18;2.40;99.90
15413;DHT22;7805;49.554;7.632;2022-12-20T00:28:44;2.30;99.90
15413;DHT22;7805;49.554;7.632;2022-12-20T00:31:11;2.30;99.90
15413;DHT22;7805;49.554;7.632;2022-12-20T00:33:38;2.30;99.90
15413;DHT22;7805;49.554;7.632;2022-12-20T00:36:05;2.30;99.90
15413;DHT22;7805;49.554;7.632;2022-12-20T00:38:32;2.30;99.90
15413;DHT22;7805;49.554;7.632;2022-12-20T00:41:12;2.40;99.90
15413;DHT22;7805;49.554;7.632;2022-12-20T00:43:40;2.30;99.90
15413;DHT22;7805;49.554;7.632;2022-12-20T00:46:07;2.30;99.90
15413;DHT22;7805;49.554;7.632;2022-12-20T00:48:33;2.30;99.90
15413;DHT22;7805;49.554;7.632;2022-12-20T00:51:04;2.20;99.90
15413;DHT22;7805;49.554;7.632;2022-12-20T00:53:30;2.20;99.90
15413;DHT22;7805;49.554;7.632;2022-12-20T00:55:55;2.20;99.90
15413;DHT22;7805;49.554;7.632;2022-12-20T00:58:21;2.10;99.90
15413;DHT22;7805;49.554;7.632;2022-12-20T01:00:47;2.10;99.90
15413;DHT22;7805;49.554;7.632;2022-12-20T01:03:13;2.00;99.90
15413;DHT22;7805;49.554;7.632;2022-12-20T01:05:38;2.00;99.90
15413;DHT22;7805;49.554;7.632;2022-12-20T01:08:04;2.00;99.90
15413;DHT22;7805;49.554;7.632;2022-12-20T01:10:30;2.00;99.90
15413;DHT22;7805;49.554;7.632;2022-12-20T01:12:56;2.00;99.90
15413;DHT22;7805;49.554;7.632;2022-12-20T01:15:22;2.00;99.90
15413;DHT22;7805;49.554;7.632;2022-12-20T01:17:47;2.00;99.90
15413;DHT22;7805;49.554;7.632;2022-12-20T01:20:13;2.10;99.90
15413;DHT22;7805;49.554;7.632;2022-12-20T01:22:39;2.20;99.90
15413;DHT22;7805;49.554;7.632;2022-12-20T01:25:04;2.00;99.90
15413;DHT22;7805;49.554;7.632;2022-12-20T01:27:30;2.00;99.90
15413;DHT22;7805;49.554;7.632;2022-12-20T01:29:56;2.10;99.90
15413;DHT22;7805;49.554;7.632;2022-12-20T01:32:22;2.00;99.90
15413;DHT22;7805;49.554;7.632;2022-12-20T01:34:47;2.00;99.90
15413;DHT22;7805;49.554;7.632;2022-12-20T01:37:13;1.90;99.90
15413;DHT22;7805;49.554;7.632;2022-12-20T01:39:38;1.90;99.90
15413;DHT22;7805;49.554;7.632;2022-12-20T01:42:04;1.90;99.90
15413;DHT22;7805;49.554;7.632;2022-12-20T01:46:56;1.80;99.90
15413;DHT22;7805;49.554;7.632;2022-12-20T01:49:41;1.80;99.90
15413;DHT22;7805;49.554;7.632;2022-12-20T01:52:12;1.80;99.90
15413;DHT22;7805;49.554;7.632;2022-12-20T01:54:47;1.90;99.90
15413;DHT22;7805;49.554;7.632;2022-12-20T02:00:04;2.00;99.90
15413;DHT22;7805;49.554;7.632;2022-12-20T02:02:31;1.90;99.90
15413;DHT22;7805;49.554;7.632;2022-12-20T02:04:57;1.90;99.90
15413;DHT22;7805;49.554;7.632;2022-12-20T02:07:26;1.90;99.90
15413;DHT22;7805;49.554;7.632;2022-12-20T02:09:53;3.60;99.90
15413;DHT22;7805;49.554;7.632;2022-12-20T02:12:23;1.90;99.90
15413;DHT22;7805;49.554;7.632;2022-12-20T02:31:28;2.10;99.90
15413;DHT22;7805;49.554;7.632;2022-12-20T02:33:57;2.10;99.90
15413;DHT22;7805;49.554;7.632;2022-12-20T02:36:23;2.10;99.90
15413;DHT22;7805;49.554;7.632;2022-12-20T02:38:50;2.20;99.90
15413;DHT22;7805;49.554;7.632;2022-12-20T02:41:29;2.20;99.90
15413;DHT22;7805;49.554;7.632;2022-12-20T02:44:04;2.20;99.90
15413;DHT22;7805;49.554;7.632;2022-12-20T02:46:52;2.20;99.90
15413;DHT22;7805;49.554;7.632;2022-12-20T02:49:20;2.20;99.90
15413;DHT22;7805;49.554;7.632;2022-12-20T02:51:50;2.20;99.90
15413;DHT22;7805;49.554;7.632;2022-12-20T02:54:16;2.10;99.90
15413;DHT22;7805;49.554;7.632;2022-12-20T02:57:05;2.10;99.90
15413;DHT22;7805;49.554;7.632;2022-12-20T02:59:40;2.20;99.90
15413;DHT22;7805;49.554;7.632;2022-12-20T03:02:08;2.20;99.90
15413;DHT22;7805;49.554;7.632;2022-12-20T03:04:36;2.20;99.90
15413;DHT22;7805;49.554;7.632;2022-12-20T03:07:08;2.30;99.90
15413;DHT22;7805;49.554;7.632;2022-12-20T03:09:38;2.20;99.90
15413;DHT22;7805;49.554;7.632;2022-12-20T03:12:04;2.20;99.90
15413;DHT22;7805;49.554;7.632;2022-12-20T03:14:30;2.20;99.90
15413;DHT22;7805;49.554;7.632;2022-12-20T03:16:56;2.20;99.90
15413;DHT22;7805;49.554;7.632;2022-12-20T03:19:22;2.20;99.90
15413;DHT22;7805;49.554;7.632;2022-12-20T03:21:47;2.30;99.90
15413;DHT22;7805;49.554;7.632;2022-12-20T03:24:13;2.30;99.90
15413;DHT22;7805;49.554;7.632;2022-12-20T03:26:42;2.30;99.90
15413;DHT22;7805;49.554;7.632;2022-12-20T03:29:09;2.30;99.90
15413;DHT22;7805;49.554;7.632;2022-12-20T03:31:35;2.20;99.90
15413;DHT22;7805;49.554;7.632;2022-12-20T03:34:01;2.30;99.90
15413;DHT22;7805;49.554;7.632;2022-12-20T03:36:27;2.30;99.90
15413;DHT22;7805;49.554;7.632;2022-12-20T03:38:53;2.20;99.90
15413;DHT22;7805;49.554;7.632;2022-12-20T03:41:19;2.20;99.90
15413;DHT22;7805;49.554;7.632;2022-12-20T03:43:46;2.10;99.90
15413;DHT22;7805;49.554;7.632;2022-12-20T03:46:12;2.20;99.90
15413;DHT22;7805;49.554;7.632;2022-12-20T03:48:38;2.20;99.90
15413;DHT22;7805;49.554;7.632;2022-12-20T03:51:04;2.20;99.90
15413;DHT22;7805;49.554;7.632;2022-12-20T03:53:30;2.10;99.90
15413;DHT22;7805;49.554;7.632;2022-12-20T03:55:55;2.10;99.90
15413;DHT22;7805;49.554;7.632;2022-12-20T03:58:21;2.10;99.90
15413;DHT22;7805;49.554;7.632;2022-12-20T04:00:47;2.00;99.90
15413;DHT22;7805;49.554;7.632;2022-12-20T04:03:13;2.10;99.90
15413;DHT22;7805;49.554;7.632;2022-12-20T04:05:38;2.10;99.90
15413;DHT22;7805;49.554;7.632;2022-12-20T04:08:04;2.10;99.90
15413;DHT22;7805;49.554;7.632;2022-12-20T04:10:29;2.10;99.90
15413;DHT22;7805;49.554;7.632;2022-12-20T04:12:55;2.10;99.90
15413;DHT22;7805;49.554;7.632;2022-12-20T04:15:21;2.00;99.90
15413;DHT22;7805;49.554;7.632;2022-12-20T04:17:46;2.00;99.90
15413;DHT22;7805;49.554;7.632;2022-12-20T04:20:16;2.00;99.90
15413;DHT22;7805;49.554;7.632;2022-12-20T04:22:48;2.00;99.90
15413;DHT22;7805;49.554;7.632;2022-12-20T04:25:16;2.10;99.90
15413;DHT22;7805;49.554;7.632;2022-12-20T04:27:42;2.00;99.90
15413;DHT22;7805;49.554;7.632;2022-12-20T04:30:08;1.90;99.90
15413;DHT22;7805;49.554;7.632;2022-12-20T04:32:34;1.80;99.90
15413;DHT22;7805;49.554;7.632;2022-12-20T04:34:59;1.80;99.90
15413;DHT22;7805;49.554;7.632;2022-12-20T04:37:25;1.90;99.90
15413;DHT22;7805;49.554;7.632;2022-12-20T04:39:51;1.90;99.90
15413;DHT22;7805;49.554;7.632;2022-12-20T04:42:16;1.00;99.90
15413;DHT22;7805;49.554;7.632;2022-12-20T04:44:42;2.00;99.90
15413;DHT22;7805;49.554;7.632;2022-12-20T04:47:07;2.00;99.90
15413;DHT22;7805;49.554;7.632;2022-12-20T04:49:34;2.00;99.90
15413;DHT22;7805;49.554;7.632;2022-12-20T04:52:00;2.00;99.90
15413;DHT22;7805;49.554;7.632;2022-12-20T04:54:45;2.00;99.90
15413;DHT22;7805;49.554;7.632;2022-12-20T04:57:12;2.00;99.90
15413;DHT22;7805;49.554;7.632;2022-12-20T04:59:37;2.00;99.90
15413;DHT22;7805;49.554;7.632;2022-12-20T05:02:03;2.00;99.90
15413;DHT22;7805;49.554;7.632;2022-12-20T05:04:29;2.00;99.90
15413;DHT22;7805;49.554;7.632;2022-12-20T05:06:54;2.00;99.90
15413;DHT22;7805;49.554;7.632;2022-12-20T05:09:20;2.00;99.90
15413;DHT22;7805;49.554;7.632;2022-12-20T05:11:45;2.00;99.90
15413;DHT22;7805;49.554;7.632;2022-12-20T05:14:11;2.00;99.90
15413;DHT22;7805;49.554;7.632;2022-12-20T05:16:36;2.10;99.90
15413;DHT22;7805;49.554;7.632;2022-12-20T05:19:02;2.10;99.90
15413;DHT22;7805;49.554;7.632;2022-12-20T05:21:29;2.20;99.90
15413;DHT22;7805;49.554;7.632;2022-12-20T05:24:13;2.20;99.90
15413;DHT22;7805;49.554;7.632;2022-12-20T05:26:57;2.20;99.90
15413;DHT22;7805;49.554;7.632;2022-12-20T05:29:23;2.30;99.90
15413;DHT22;7805;49.554;7.632;2022-12-20T05:31:48;2.30;99.90
15413;DHT22;7805;49.554;7.632;2022-12-20T05:34:14;2.30;99.90
15413;DHT22;7805;49.554;7.632;2022-12-20T05:36:40;2.40;99.90
15413;DHT22;7805;49.554;7.632;2022-12-20T05:39:05;2.30;99.90
15413;DHT22;7805;49.554;7.632;2022-12-20T05:41:31;2.30;99.90
15413;DHT22;7805;49.554;7.632;2022-12-20T05:43:57;2.30;99.90
15413;DHT22;7805;49.554;7.632;2022-12-20T05:46:22;2.30;99.90
15413;DHT22;7805;49.554;7.632;2022-12-20T05:48:48;2.40;99.90
15413;DHT22;7805;49.554;7.632;2022-12-20T05:51:13;2.40;99.90
15413;DHT22;7805;49.554;7.632;2022-12-20T05:53:39;2.40;99.90
15413;DHT22;7805;49.554;7.632;2022-12-20T05:56:05;2.50;99.90
15413;DHT22;7805;49.554;7.632;2022-12-20T05:58:30;2.50;99.90
15413;DHT22;7805;49.554;7.632;2022-12-20T06:00:59;1.60;99.90
15413;DHT22;7805;49.554;7.632;2022-12-20T06:03:25;2.50;99.90
15413;DHT22;7805;49.554;7.632;2022-12-20T06:05:50;2.50;99.90
15413;DHT22;7805;49.554;7.632;2022-12-20T06:08:16;2.60;99.90
15413;DHT22;7805;49.554;7.632;2022-12-20T06:10:42;2.60;99.90
15413;DHT22;7805;49.554;7.632;2022-12-20T06:13:08;2.60;99.90
15413;DHT22;7805;49.554;7.632;2022-12-20T06:15:34;2.70;99.90
15413;DHT22;7805;49.554;7.632;2022-12-20T06:18:00;4.50;99.90
15413;DHT22;7805;49.554;7.632;2022-12-20T06:20:25;2.60;99.90
15413;DHT22;7805;49.554;7.632;2022-12-20T06:22:51;1.10;99.90
15413;DHT22;7805;49.554;7.632;2022-12-20T06:25:17;2.70;99.90
15413;DHT22;7805;49.554;7.632;2022-12-20T06:27:42;2.70;99.90
15413;DHT22;7805;49.554;7.632;2022-12-20T06:30:09;2.70;99.90
15413;DHT22;7805;49.554;7.632;2022-12-20T06:32:35;2.80;99.90
15413;DHT22;7805;49.554;7.632;2022-12-20T06:35:01;2.80;99.90
15413;DHT22;7805;49.554;7.632;2022-12-20T06:37:27;2.80;99.90
15413;DHT22;7805;49.554;7.632;2022-12-20T06:39:52;2.90;99.90
15413;DHT22;7805;49.554;7.632;2022-12-20T06:42:18;2.90;99.90
15413;DHT22;7805;49.554;7.632;2022-12-20T06:44:43;2.80;99.90
15413;DHT22;7805;49.554;7.632;2022-12-20T06:47:10;2.90;99.90
15413;DHT22;7805;49.554;7.632;2022-12-20T06:49:38;2.80;99.90
15413;DHT22;7805;49.554;7.632;2022-12-20T06:52:04;2.80;99.90
15413;DHT22;7805;49.554;7.632;2022-12-20T06:54:29;2.80;99.90
15413;DHT22;7805;49.554;7.632;2022-12-20T06:56:55;2.80;99.90
15413;DHT22;7805;49.554;7.632;2022-12-20T06:59:21;2.80;99.90
15413;DHT22;7805;49.554;7.632;2022-12-20T07:01:46;2.80;99.90
15413;DHT22;7805;49.554;7.632;2022-12-20T07:04:12;2.80;99.90
15413;DHT22;7805;49.554;7.632;2022-12-20T07:06:37;2.80;99.90
15413;DHT22;7805;49.554;7.632;2022-12-20T07:09:03;2.80;99.90
15413;DHT22;7805;49.554;7.632;2022-12-20T07:11:28;2.80;99.90
15413;DHT22;7805;49.554;7.632;2022-12-20T07:13:57;2.80;99.90
15413;DHT22;7805;49.554;7.632;2022-12-20T07:16:23;2.80;99.90
15413;DHT22;7805;49.554;7.632;2022-12-20T07:18:50;2.80;99.90
15413;DHT22;7805;49.554;7.632;2022-12-20T07:21:16;2.80;99.90
15413;DHT22;7805;49.554;7.632;2022-12-20T07:23:43;2.80;99.90
15413;DHT22;7805;49.554;7.632;2022-12-20T07:26:09;2.90;99.90
15413;DHT22;7805;49.554;7.632;2022-12-20T07:28:36;2.80;99.90
15413;DHT22;7805;49.554;7.632;2022-12-20T07:31:02;2.90;99.90
15413;DHT22;7805;49.554;7.632;2022-12-20T07:33:28;3.00;99.90
15413;DHT22;7805;49.554;7.632;2022-12-20T07:36:02;2.90;99.90
15413;DHT22;7805;49.554;7.632;2022-12-20T07:38:28;2.90;99.90
15413;DHT22;7805;49.554;7.632;2022-12-20T07:40:54;2.90;99.90
15413;DHT22;7805;49.554;7.632;2022-12-20T07:43:20;2.90;99.90
15413;DHT22;7805;49.554;7.632;2022-12-20T07:45:45;2.80;99.90
15413;DHT22;7805;49.554;7.632;2022-12-20T07:48:11;2.70;99.90
15413;DHT22;7805;49.554;7.632;2022-12-20T07:50:38;2.70;99.90
15413;DHT22;7805;49.554;7.632;2022-12-20T07:53:05;2.80;99.90
15413;DHT22;7805;49.554;7.632;2022-12-20T07:55:31;2.80;99.90
15413;DHT22;7805;49.554;7.632;2022-12-20T07:58:02;2.90;99.90
15413;DHT22;7805;49.554;7.632;2022-12-20T08:00:29;3.00;99.90
15413;DHT22;7805;49.554;7.632;2022-12-20T08:03:09;3.00;99.90
15413;DHT22;7805;49.554;7.632;2022-12-20T08:05:39;2.90;99.90
15413;DHT22;7805;49.554;7.632;2022-12-20T08:08:06;4.60;99.90
15413;DHT22;7805;49.554;7.632;2022-12-20T08:10:32;2.80;99.90
15413;DHT22;7805;49.554;7.632;2022-12-20T08:12:58;2.80;99.90
15413;DHT22;7805;49.554;7.632;2022-12-20T08:15:25;3.00;99.90
15413;DHT22;7805;49.554;7.632;2022-12-20T08:17:51;3.00;99.90
15413;DHT22;7805;49.554;7.632;2022-12-20T08:20:16;3.00;99.90
15413;DHT22;7805;49.554;7.632;2022-12-20T08:22:42;4.80;99.90
15413;DHT22;7805;49.554;7.632;2022-12-20T08:25:08;3.10;99.90
15413;DHT22;7805;49.554;7.632;2022-12-20T08:27:34;3.20;99.90
15413;DHT22;7805;49.554;7.632;2022-12-20T08:29:59;3.20;99.90
15413;DHT22;7805;49.554;7.632;2022-12-20T08:32:25;3.20;99.90
15413;DHT22;7805;49.554;7.632;2022-12-20T08:34:51;3.40;99.90
15413;DHT22;7805;49.554;7.632;2022-12-20T08:37:17;3.40;99.90
15413;DHT22;7805;49.554;7.632;2022-12-20T08:39:43;3.50;99.90
15413;DHT22;7805;49.554;7.632;2022-12-20T08:42:09;3.50;99.90
15413;DHT22;7805;49.554;7.632;2022-12-20T08:44:35;3.60;99.90
15413;DHT22;7805;49.554;7.632;2022-12-20T08:47:00;3.60;99.90
15413;DHT22;7805;49.554;7.632;2022-12-20T08:49:26;3.70;99.90
15413;DHT22;7805;49.554;7.632;2022-12-20T08:51:52;3.70;99.90
15413;DHT22;7805;49.554;7.632;2022-12-20T08:54:17;3.80;99.90
15413;DHT22;7805;49.554;7.632;2022-12-20T08:56:43;3.90;99.90
15413;DHT22;7805;49.554;7.632;2022-12-20T08:59:08;4.00;99.90
15413;DHT22;7805;49.554;7.632;2022-12-20T09:01:34;4.00;99.90
15413;DHT22;7805;49.554;7.632;2022-12-20T09:03:59;4.10;99.90
15413;DHT22;7805;49.554;7.632;2022-12-20T09:06:25;4.20;99.90
15413;DHT22;7805;49.554;7.632;2022-12-20T09:08:51;4.10;99.90
15413;DHT22;7805;49.554;7.632;2022-12-20T09:11:19;4.10;99.90
15413;DHT22;7805;49.554;7.632;2022-12-20T09:13:47;4.20;99.90
15413;DHT22;7805;49.554;7.632;2022-12-20T09:16:16;4.20;99.90
15413;DHT22;7805;49.554;7.632;2022-12-20T09:18:42;4.30;99.90
15413;DHT22;7805;49.554;7.632;2022-12-20T09:21:08;4.30;99.90
15413;DHT22;7805;49.554;7.632;2022-12-20T09:23:35;4.40;99.90
15413;DHT22;7805;49.554;7.632;2022-12-20T09:26:02;4.50;99.90
15413;DHT22;7805;49.554;7.632;2022-12-20T09:28:29;4.50;99.90
15413;DHT22;7805;49.554;7.632;2022-12-20T09:31:02;4.60;99.90
15413;DHT22;7805;49.554;7.632;2022-12-20T09:33:29;4.70;99.90
15413;DHT22;7805;49.554;7.632;2022-12-20T09:35:56;4.70;99.90
15413;DHT22;7805;49.554;7.632;2022-12-20T09:38:22;4.70;99.90
15413;DHT22;7805;49.554;7.632;2022-12-20T09:40:50;4.70;99.90
15413;DHT22;7805;49.554;7.632;2022-12-20T09:43:17;4.80;99.90
15413;DHT22;7805;49.554;7.632;2022-12-20T09:45:46;4.70;99.90
15413;DHT22;7805;49.554;7.632;2022-12-20T09:48:19;4.70;99.90
15413;DHT22;7805;49.554;7.632;2022-12-20T09:54:06;5.00;99.90
15413;DHT22;7805;49.554;7.632;2022-12-20T09:56:44;5.00;99.90
15413;DHT22;7805;49.554;7.632;2022-12-20T09:59:14;5.10;99.90
15413;DHT22;7805;49.554;7.632;2022-12-20T10:01:47;5.20;99.90
15413;DHT22;7805;49.554;7.632;2022-12-20T10:04:23;5.30;99.90
15413;DHT22;7805;49.554;7.632;2022-12-20T10:07:20;5.30;99.90
15413;DHT22;7805;49.554;7.632;2022-12-20T10:25:57;6.30;99.90
15413;DHT22;7805;49.554;7.632;2022-12-20T10:28:32;6.40;99.90
15413;DHT22;7805;49.554;7.632;2022-12-20T10:31:00;6.30;99.90
15413;DHT22;7805;49.554;7.632;2022-12-20T10:33:27;6.30;99.90
15413;DHT22;7805;49.554;7.632;2022-12-20T10:35:53;6.50;99.90
15413;DHT22;7805;49.554;7.632;2022-12-20T10:38:19;6.70;99.90
15413;DHT22;7805;49.554;7.632;2022-12-20T10:43:23;6.90;99.90
15413;DHT22;7805;49.554;7.632;2022-12-20T10:45:59;7.00;99.90
15413;DHT22;7805;49.554;7.632;2022-12-20T10:53:35;7.40;99.90
15413;DHT22;7805;49.554;7.632;2022-12-20T10:56:23;7.90;99.90
15413;DHT22;7805;49.554;7.632;2022-12-20T11:01:19;8.90;99.90
15413;DHT22;7805;49.554;7.632;2022-12-20T11:06:16;9.80;99.90
15413;DHT22;7805;49.554;7.632;2022-12-20T11:08:41;9.90;99.90
15413;DHT22;7805;49.554;7.632;2022-12-20T11:11:22;10.00;99.90
15413;DHT22;7805;49.554;7.632;2022-12-20T11:13:48;10.30;99.90
15413;DHT22;7805;49.554;7.632;2022-12-20T11:16:27;10.60;99.90
15413;DHT22;7805;49.554;7.632;2022-12-20T11:18:55;10.70;99.90
15413;DHT22;7805;49.554;7.632;2022-12-20T11:24:19;10.70;99.90
15413;DHT22;7805;49.554;7.632;2022-12-20T11:27:02;10.80;99.90
15413;DHT22;7805;49.554;7.632;2022-12-20T11:29:42;10.80;99.90
15413;DHT22;7805;49.554;7.632;2022-12-20T11:32:35;10.50;99.90
15413;DHT22;7805;49.554;7.632;2022-12-20T11:37:50;10.40;99.90
15413;DHT22;7805;49.554;7.632;2022-12-20T11:40:28;10.40;99.90
15413;DHT22;7805;49.554;7.632;2022-12-20T11:46:37;10.20;99.90
15413;DHT22;7805;49.554;7.632;2022-12-20T11:51:22;10.20;99.90
15413;DHT22;7805;49.554;7.632;2022-12-20T11:53:59;10.30;99.90
15413;DHT22;7805;49.554;7.632;2022-12-20T11:56:34;10.50;99.90
15413;DHT22;7805;49.554;7.632;2022-12-20T12:01:56;10.20;99.90
15413;DHT22;7805;49.554;7.632;2022-12-20T12:04:26;10.30;99.90
15413;DHT22;7805;49.554;7.632;2022-12-20T12:07:05;10.60;99.90
15413;DHT22;7805;49.554;7.632;2022-12-20T12:12:31;11.20;99.90
15413;DHT22;7805;49.554;7.632;2022-12-20T12:17:57;12.60;99.90
15413;DHT22;7805;49.554;7.632;2022-12-20T12:23:14;14.30;99.90
15413;DHT22;7805;49.554;7.632;2022-12-20T12:25:40;15.20;99.90
15413;DHT22;7805;49.554;7.632;2022-12-20T12:28:08;16.30;99.90
15413;DHT22;7805;49.554;7.632;2022-12-20T12:30:42;17.00;99.90
15413;DHT22;7805;49.554;7.632;2022-12-20T12:33:23;17.20;99.90
15413;DHT22;7805;49.554;7.632;2022-12-20T12:43:46;19.20;96.70
15413;DHT22;7805;49.554;7.632;2022-12-20T12:46:33;18.20;98.10
15413;DHT22;7805;49.554;7.632;2022-12-20T12:49:15;17.40;98.80
15413;DHT22;7805;49.554;7.632;2022-12-20T12:51:49;16.60;99.90
15413;DHT22;7805;49.554;7.632;2022-12-20T12:54:18;16.10;99.90
15413;DHT22;7805;49.554;7.632;2022-12-20T12:56:58;15.60;99.90
15413;DHT22;7805;49.554;7.632;2022-12-20T13:10:01;14.80;99.90
15413;DHT22;7805;49.554;7.632;2022-12-20T13:17:49;14.50;99.90
15413;DHT22;7805;49.554;7.632;2022-12-20T13:20:24;14.80;99.90
15413;DHT22;7805;49.554;7.632;2022-12-20T13:25:47;15.30;99.90
15413;DHT22;7805;49.554;7.632;2022-12-20T13:33:44;13.70;99.90
15413;DHT22;7805;49.554;7.632;2022-12-20T13:41:35;13.20;99.90
15413;DHT22;7805;49.554;7.632;2022-12-20T13:46:52;12.60;99.90
15413;DHT22;7805;49.554;7.632;2022-12-20T13:49:27;12.40;99.90
15413;DHT22;7805;49.554;7.632;2022-12-20T13:52:16;12.10;99.90
15413;DHT22;7805;49.554;7.632;2022-12-20T13:54:47;12.00;99.90
15413;DHT22;7805;49.554;7.632;2022-12-20T13:57:16;11.90;99.90
15413;DHT22;7805;49.554;7.632;2022-12-20T13:59:49;12.00;99.90
15413;DHT22;7805;49.554;7.632;2022-12-20T14:02:29;13.20;99.90
15413;DHT22;7805;49.554;7.632;2022-12-20T14:05:03;14.10;99.90
15413;DHT22;7805;49.554;7.632;2022-12-20T14:07:31;14.60;99.90
15413;DHT22;7805;49.554;7.632;2022-12-20T14:10:00;14.60;99.90
15413;DHT22;7805;49.554;7.632;2022-12-20T14:12:26;14.10;99.90
15413;DHT22;7805;49.554;7.632;2022-12-20T14:14:52;13.30;99.90
15413;DHT22;7805;49.554;7.632;2022-12-20T14:17:31;13.20;99.90
15413;DHT22;7805;49.554;7.632;2022-12-20T14:22:28;12.70;99.90
15413;DHT22;7805;49.554;7.632;2022-12-20T14:24:54;12.40;99.90
15413;DHT22;7805;49.554;7.632;2022-12-20T14:27:20;12.30;99.90
15413;DHT22;7805;49.554;7.632;2022-12-20T14:29:46;12.10;99.90
15413;DHT22;7805;49.554;7.632;2022-12-20T14:32:18;12.00;99.90
15413;DHT22;7805;49.554;7.632;2022-12-20T14:34:45;11.80;99.90
15413;DHT22;7805;49.554;7.632;2022-12-20T14:37:30;11.70;99.90
15413;DHT22;7805;49.554;7.632;2022-12-20T14:40:15;11.50;99.90
15413;DHT22;7805;49.554;7.632;2022-12-20T14:42:42;11.30;99.90
15413;DHT22;7805;49.554;7.632;2022-12-20T14:47:33;11.10;99.90
15413;DHT22;7805;49.554;7.632;2022-12-20T14:50:02;11.00;99.90
15413;DHT22;7805;49.554;7.632;2022-12-20T14:52:36;10.90;99.90
15413;DHT22;7805;49.554;7.632;2022-12-20T14:55:07;10.70;99.90
15413;DHT22;7805;49.554;7.632;2022-12-20T14:57:38;9.70;99.90
15413;DHT22;7805;49.554;7.632;2022-12-20T15:05:53;10.40;99.90
15413;DHT22;7805;49.554;7.632;2022-12-20T15:07:54;10.30;99.90
15413;DHT22;7805;49.554;7.632;2022-12-20T15:10:19;10.20;99.90
15413;DHT22;7805;49.554;7.632;2022-12-20T15:12:45;10.10;99.90
15413;DHT22;7805;49.554;7.632;2022-12-20T15:15:14;10.00;99.90
15413;DHT22;7805;49.554;7.632;2022-12-20T15:17:40;9.90;99.90
15413;DHT22;7805;49.554;7.632;2022-12-20T15:20:11;9.90;99.90
15413;DHT22;7805;49.554;7.632;2022-12-20T15:22:37;9.70;99.90
15413;DHT22;7805;49.554;7.632;2022-12-20T15:25:16;9.70;99.90
15413;DHT22;7805;49.554;7.632;2022-12-20T15:27:42;9.60;99.90
15413;DHT22;7805;49.554;7.632;2022-12-20T15:30:12;9.60;99.90
15413;DHT22;7805;49.554;7.632;2022-12-20T15:32:41;9.60;99.90
15413;DHT22;7805;49.554;7.632;2022-12-20T15:35:14;9.60;99.90
15413;DHT22;7805;49.554;7.632;2022-12-20T15:37:40;9.50;99.90
15413;DHT22;7805;49.554;7.632;2022-12-20T15:40:06;9.40;99.90
15413;DHT22;7805;49.554;7.632;2022-12-20T15:42:32;9.40;99.90
15413;DHT22;7805;49.554;7.632;2022-12-20T15:44:57;9.40;99.90
15413;DHT22;7805;49.554;7.632;2022-12-20T15:47:23;9.30;99.90
15413;DHT22;7805;49.554;7.632;2022-12-20T15:49:48;9.20;99.90
15413;DHT22;7805;49.554;7.632;2022-12-20T15:52:18;9.30;99.90
15413;DHT22;7805;49.554;7.632;2022-12-20T15:54:44;9.30;99.90
15413;DHT22;7805;49.554;7.632;2022-12-20T15:57:12;9.30;99.90
15413;DHT22;7805;49.554;7.632;2022-12-20T15:59:38;9.20;99.90
15413;DHT22;7805;49.554;7.632;2022-12-20T16:02:23;9.20;99.90
15413;DHT22;7805;49.554;7.632;2022-12-20T16:04:49;9.10;99.90
15413;DHT22;7805;49.554;7.632;2022-12-20T16:07:15;9.00;99.90
15413;DHT22;7805;49.554;7.632;2022-12-20T16:09:41;9.00;99.90
15413;DHT22;7805;49.554;7.632;2022-12-20T16:12:16;9.00;99.90
15413;DHT22;7805;49.554;7.632;2022-12-20T16:14:42;9.00;99.90
15413;DHT22;7805;49.554;7.632;2022-12-20T16:17:14;8.90;99.90
15413;DHT22;7805;49.554;7.632;2022-12-20T16:19:43;8.90;99.90
15413;DHT22;7805;49.554;7.632;2022-12-20T16:22:21;8.90;99.90
15413;DHT22;7805;49.554;7.632;2022-12-20T16:24:47;8.90;99.90
15413;DHT22;7805;49.554;7.632;2022-12-20T16:27:12;8.80;99.90
15413;DHT22;7805;49.554;7.632;2022-12-20T16:29:38;8.80;99.90
15413;DHT22;7805;49.554;7.632;2022-12-20T16:32:16;8.80;99.90
15413;DHT22;7805;49.554;7.632;2022-12-20T16:34:42;8.70;99.90
15413;DHT22;7805;49.554;7.632;2022-12-20T16:37:08;8.70;99.90
15413;DHT22;7805;49.554;7.632;2022-12-20T16:39:35;8.70;99.90
15413;DHT22;7805;49.554;7.632;2022-12-20T16:42:01;8.70;99.90
15413;DHT22;7805;49.554;7.632;2022-12-20T16:44:27;8.60;99.90
15413;DHT22;7805;49.554;7.632;2022-12-20T16:46:53;8.50;99.90
15413;DHT22;7805;49.554;7.632;2022-12-20T16:49:18;8.50;99.90
15413;DHT22;7805;49.554;7.632;2022-12-20T16:51:45;8.50;99.90
15413;DHT22;7805;49.554;7.632;2022-12-20T16:54:15;8.40;99.90
15413;DHT22;7805;49.554;7.632;2022-12-20T16:56:41;8.40;99.90
15413;DHT22;7805;49.554;7.632;2022-12-20T16:59:08;8.50;99.90
15413;DHT22;7805;49.554;7.632;2022-12-20T17:01:36;8.50;99.90
15413;DHT22;7805;49.554;7.632;2022-12-20T17:04:03;8.50;99.90
15413;DHT22;7805;49.554;7.632;2022-12-20T17:06:29;8.50;99.90
15413;DHT22;7805;49.554;7.632;2022-12-20T17:08:54;8.50;99.90
15413;DHT22;7805;49.554;7.632;2022-12-20T17:11:29;8.40;99.90
15413;DHT22;7805;49.554;7.632;2022-12-20T17:13:57;8.40;99.90
15413;DHT22;7805;49.554;7.632;2022-12-20T17:16:23;8.30;99.90
15413;DHT22;7805;49.554;7.632;2022-12-20T17:18:51;8.30;99.90
15413;DHT22;7805;49.554;7.632;2022-12-20T17:23:49;8.20;99.90
15413;DHT22;7805;49.554;7.632;2022-12-20T17:26:20;8.20;99.90
15413;DHT22;7805;49.554;7.632;2022-12-20T17:28:48;8.20;99.90
15413;DHT22;7805;49.554;7.632;2022-12-20T17:31:37;8.20;99.90
15413;DHT22;7805;49.554;7.632;2022-12-20T17:36:41;8.20;99.90
15413;DHT22;7805;49.554;7.632;2022-12-20T17:39:08;8.10;99.90
15413;DHT22;7805;49.554;7.632;2022-12-20T17:41:33;8.10;99.90
15413;DHT22;7805;49.554;7.632;2022-12-20T17:44:00;8.10;99.90
15413;DHT22;7805;49.554;7.632;2022-12-20T17:46:27;8.00;99.90
15413;DHT22;7805;49.554;7.632;2022-12-20T17:48:54;8.10;99.90
15413;DHT22;7805;49.554;7.632;2022-12-20T17:51:26;8.10;99.90
15413;DHT22;7805;49.554;7.632;2022-12-20T17:53:54;8.00;99.90
15413;DHT22;7805;49.554;7.632;2022-12-20T17:56:30;8.10;99.90
15413;DHT22;7805;49.554;7.632;2022-12-20T17:58:56;8.10;99.90
15413;DHT22;7805;49.554;7.632;2022-12-20T18:03:55;8.10;99.90
15413;DHT22;7805;49.554;7.632;2022-12-20T18:06:22;8.10;99.90
15413;DHT22;7805;49.554;7.632;2022-12-20T18:08:49;8.10;99.90
15413;DHT22;7805;49.554;7.632;2022-12-20T18:11:16;8.10;99.90
15413;DHT22;7805;49.554;7.632;2022-12-20T18:13:46;8.20;99.90
15413;DHT22;7805;49.554;7.632;2022-12-20T18:16:14;8.00;99.90
15413;DHT22;7805;49.554;7.632;2022-12-20T18:18:39;8.20;99.90
15413;DHT22;7805;49.554;7.632;2022-12-20T18:21:10;8.00;99.90
15413;DHT22;7805;49.554;7.632;2022-12-20T18:23:37;7.90;99.90